sensor_id;sensor_type;location;lat;lon;timestamp;P1;durP1;ratioP1;P2;durP2;ratioP2
57023;SDS011;42916;54.346;18.562;2023-03-01T00:00:07;7.40;;;4.20;;
57023;SDS011;42916;54.346;18.562;2023-03-01T00:02:57;12.10;;;4.50;;
57023;SDS011;42916;54.346;18.562;2023-03-01T00:05:25;10.10;;;4.10;;
57023;SDS011;42916;54.346;18.562;2023-03-01T00:07:52;13.30;;;4.90;;
57023;SDS011;42916;54.346;18.562;2023-03-01T00:10:20;9.60;;;4.20;;
57023;SDS011;42916;54.346;18.562;2023-03-01T00:12:47;8.90;;;4.50;;
57023;SDS011;42916;54.346;18.562;2023-03-01T00:15:14;10.40;;;4.30;;
57023;SDS011;42916;54.346;18.562;2023-03-01T00:17:41;9.70;;;3.80;;
57023;SDS011;42916;54.346;18.562;2023-03-01T00:20:08;9.40;;;4.60;;
57023;SDS011;42916;54.346;18.562;2023-03-01T00:22:36;9.80;;;4.50;;
57023;SDS011;42916;54.346;18.562;2023-03-01T00:25:03;12.10;;;5.60;;
57023;SDS011;42916;54.346;18.562;2023-03-01T00:27:30;11.20;;;4.50;;
57023;SDS011;42916;54.346;18.562;2023-03-01T00:29:57;13.40;;;4.90;;
57023;SDS011;42916;54.346;18.562;2023-03-01T00:32:25;13.70;;;5.00;;
57023;SDS011;42916;54.346;18.562;2023-03-01T00:34:53;10.90;;;5.20;;
57023;SDS011;42916;54.346;18.562;2023-03-01T00:37:24;11.30;;;4.60;;
57023;SDS011;42916;54.346;18.562;2023-03-01T00:39:51;9.20;;;4.40;;
57023;SDS011;42916;54.346;18.562;2023-03-01T00:42:18;10.80;;;4.60;;
57023;SDS011;42916;54.346;18.562;2023-03-01T00:44:45;8.50;;;4.20;;
57023;SDS011;42916;54.346;18.562;2023-03-01T00:47:12;10.40;;;5.10;;
57023;SDS011;42916;54.346;18.562;2023-03-01T00:49:40;10.60;;;4.40;;
57023;SDS011;42916;54.346;18.562;2023-03-01T00:52:07;11.20;;;4.50;;
57023;SDS011;42916;54.346;18.562;2023-03-01T00:54:34;9.20;;;4.60;;
57023;SDS011;42916;54.346;18.562;2023-03-01T00:57:01;8.40;;;4.40;;
57023;SDS011;42916;54.346;18.562;2023-03-01T00:59:28;9.00;;;4.20;;
57023;SDS011;42916;54.346;18.562;2023-03-01T01:01:55;11.50;;;4.50;;
57023;SDS011;42916;54.346;18.562;2023-03-01T01:04:22;11.20;;;4.40;;
57023;SDS011;42916;54.346;18.562;2023-03-01T01:06:49;13.40;;;5.00;;
57023;SDS011;42916;54.346;18.562;2023-03-01T01:09:17;9.30;;;4.40;;
57023;SDS011;42916;54.346;18.562;2023-03-01T01:11:45;8.30;;;4.20;;
57023;SDS011;42916;54.346;18.562;2023-03-01T01:14:13;8.10;;;4.70;;
57023;SDS011;42916;54.346;18.562;2023-03-01T01:16:41;14.00;;;5.30;;
57023;SDS011;42916;54.346;18.562;2023-03-01T01:19:09;10.80;;;4.80;;
57023;SDS011;42916;54.346;18.562;2023-03-01T01:21:37;9.00;;;4.60;;
57023;SDS011;42916;54.346;18.562;2023-03-01T01:24:04;9.90;;;5.00;;
57023;SDS011;42916;54.346;18.562;2023-03-01T01:26:33;10.60;;;5.10;;
57023;SDS011;42916;54.346;18.562;2023-03-01T01:29:02;12.40;;;4.90;;
57023;SDS011;42916;54.346;18.562;2023-03-01T01:31:30;12.60;;;5.10;;
57023;SDS011;42916;54.346;18.562;2023-03-01T01:33:59;13.10;;;5.50;;
57023;SDS011;42916;54.346;18.562;2023-03-01T01:36:27;10.10;;;4.70;;
57023;SDS011;42916;54.346;18.562;2023-03-01T01:38:55;9.90;;;5.30;;
57023;SDS011;42916;54.346;18.562;2023-03-01T01:41:22;10.70;;;4.90;;
57023;SDS011;42916;54.346;18.562;2023-03-01T01:49:32;11.60;;;5.70;;
57023;SDS011;42916;54.346;18.562;2023-03-01T01:52:11;12.10;;;6.10;;
57023;SDS011;42916;54.346;18.562;2023-03-01T01:54:54;11.50;;;5.30;;
57023;SDS011;42916;54.346;18.562;2023-03-01T01:57:27;13.20;;;6.00;;
57023;SDS011;42916;54.346;18.562;2023-03-01T02:00:19;13.10;;;6.10;;
57023;SDS011;42916;54.346;18.562;2023-03-01T02:02:48;14.10;;;5.90;;
57023;SDS011;42916;54.346;18.562;2023-03-01T02:05:20;12.20;;;4.90;;
57023;SDS011;42916;54.346;18.562;2023-03-01T02:07:53;14.60;;;6.50;;
57023;SDS011;42916;54.346;18.562;2023-03-01T02:10:22;12.60;;;5.70;;
57023;SDS011;42916;54.346;18.562;2023-03-01T02:12:51;16.40;;;6.70;;
57023;SDS011;42916;54.346;18.562;2023-03-01T02:15:19;13.00;;;6.70;;
57023;SDS011;42916;54.346;18.562;2023-03-01T02:17:47;16.70;;;7.30;;
57023;SDS011;42916;54.346;18.562;2023-03-01T02:23:02;14.50;;;6.50;;
57023;SDS011;42916;54.346;18.562;2023-03-01T02:25:33;15.10;;;6.60;;
57023;SDS011;42916;54.346;18.562;2023-03-01T02:30:40;18.80;;;8.40;;
57023;SDS011;42916;54.346;18.562;2023-03-01T02:33:37;24.00;;;8.20;;
57023;SDS011;42916;54.346;18.562;2023-03-01T02:36:09;15.80;;;7.90;;
57023;SDS011;42916;54.346;18.562;2023-03-01T02:38:41;15.70;;;7.60;;
57023;SDS011;42916;54.346;18.562;2023-03-01T02:41:08;17.40;;;8.50;;
57023;SDS011;42916;54.346;18.562;2023-03-01T02:43:39;18.20;;;8.90;;
57023;SDS011;42916;54.346;18.562;2023-03-01T02:46:07;18.80;;;9.00;;
57023;SDS011;42916;54.346;18.562;2023-03-01T02:48:41;18.40;;;8.90;;
57023;SDS011;42916;54.346;18.562;2023-03-01T02:51:14;18.00;;;8.70;;
57023;SDS011;42916;54.346;18.562;2023-03-01T02:54:22;19.80;;;8.10;;
57023;SDS011;42916;54.346;18.562;2023-03-01T02:56:55;21.10;;;9.10;;
57023;SDS011;42916;54.346;18.562;2023-03-01T02:59:24;22.00;;;9.90;;
57023;SDS011;42916;54.346;18.562;2023-03-01T03:01:55;24.50;;;10.40;;
57023;SDS011;42916;54.346;18.562;2023-03-01T03:04:22;22.70;;;9.80;;
57023;SDS011;42916;54.346;18.562;2023-03-01T03:06:52;21.90;;;9.80;;
57023;SDS011;42916;54.346;18.562;2023-03-01T03:09:19;25.70;;;9.50;;
57023;SDS011;42916;54.346;18.562;2023-03-01T03:11:46;20.30;;;9.50;;
57023;SDS011;42916;54.346;18.562;2023-03-01T03:14:15;24.50;;;10.60;;
57023;SDS011;42916;54.346;18.562;2023-03-01T03:16:48;26.80;;;9.90;;
57023;SDS011;42916;54.346;18.562;2023-03-01T03:19:16;21.60;;;9.10;;
57023;SDS011;42916;54.346;18.562;2023-03-01T03:21:45;20.70;;;10.00;;
57023;SDS011;42916;54.346;18.562;2023-03-01T03:24:12;27.60;;;10.10;;
57023;SDS011;42916;54.346;18.562;2023-03-01T03:26:39;24.00;;;10.10;;
57023;SDS011;42916;54.346;18.562;2023-03-01T03:29:06;22.30;;;10.90;;
57023;SDS011;42916;54.346;18.562;2023-03-01T03:31:33;21.20;;;9.00;;
57023;SDS011;42916;54.346;18.562;2023-03-01T03:34:00;20.10;;;9.00;;
57023;SDS011;42916;54.346;18.562;2023-03-01T03:36:28;27.10;;;10.30;;
57023;SDS011;42916;54.346;18.562;2023-03-01T03:38:54;19.40;;;8.80;;
57023;SDS011;42916;54.346;18.562;2023-03-01T03:41:21;21.50;;;9.80;;
57023;SDS011;42916;54.346;18.562;2023-03-01T03:43:48;21.20;;;9.50;;
57023;SDS011;42916;54.346;18.562;2023-03-01T03:46:15;25.40;;;11.20;;
57023;SDS011;42916;54.346;18.562;2023-03-01T03:48:43;23.20;;;10.00;;
57023;SDS011;42916;54.346;18.562;2023-03-01T03:51:13;24.30;;;10.10;;
57023;SDS011;42916;54.346;18.562;2023-03-01T03:53:42;20.40;;;10.30;;
57023;SDS011;42916;54.346;18.562;2023-03-01T03:56:09;22.10;;;10.90;;
57023;SDS011;42916;54.346;18.562;2023-03-01T03:58:37;24.80;;;10.20;;
57023;SDS011;42916;54.346;18.562;2023-03-01T04:01:04;22.80;;;9.00;;
57023;SDS011;42916;54.346;18.562;2023-03-01T04:03:33;21.60;;;9.90;;
57023;SDS011;42916;54.346;18.562;2023-03-01T04:06:01;23.70;;;9.70;;
57023;SDS011;42916;54.346;18.562;2023-03-01T04:08:30;21.70;;;9.00;;
57023;SDS011;42916;54.346;18.562;2023-03-01T04:11:01;22.30;;;9.30;;
57023;SDS011;42916;54.346;18.562;2023-03-01T04:13:51;23.30;;;9.70;;
57023;SDS011;42916;54.346;18.562;2023-03-01T04:16:21;24.60;;;9.60;;
57023;SDS011;42916;54.346;18.562;2023-03-01T04:18:48;25.00;;;8.60;;
57023;SDS011;42916;54.346;18.562;2023-03-01T04:21:16;22.60;;;9.60;;
57023;SDS011;42916;54.346;18.562;2023-03-01T04:23:43;22.40;;;9.80;;
57023;SDS011;42916;54.346;18.562;2023-03-01T04:26:09;19.90;;;9.00;;
57023;SDS011;42916;54.346;18.562;2023-03-01T04:28:37;19.30;;;9.00;;
57023;SDS011;42916;54.346;18.562;2023-03-01T04:31:13;23.50;;;9.40;;
57023;SDS011;42916;54.346;18.562;2023-03-01T04:33:45;21.30;;;9.50;;
57023;SDS011;42916;54.346;18.562;2023-03-01T04:36:20;25.20;;;9.30;;
57023;SDS011;42916;54.346;18.562;2023-03-01T04:38:50;24.90;;;10.10;;
57023;SDS011;42916;54.346;18.562;2023-03-01T04:41:19;21.60;;;9.50;;
57023;SDS011;42916;54.346;18.562;2023-03-01T04:43:47;19.60;;;8.00;;
57023;SDS011;42916;54.346;18.562;2023-03-01T04:46:16;19.80;;;8.80;;
57023;SDS011;42916;54.346;18.562;2023-03-01T04:48:44;23.90;;;10.00;;
57023;SDS011;42916;54.346;18.562;2023-03-01T04:51:13;24.40;;;9.40;;
57023;SDS011;42916;54.346;18.562;2023-03-01T04:53:41;22.70;;;9.40;;
57023;SDS011;42916;54.346;18.562;2023-03-01T04:56:09;20.20;;;8.10;;
57023;SDS011;42916;54.346;18.562;2023-03-01T04:58:40;22.80;;;9.50;;
57023;SDS011;42916;54.346;18.562;2023-03-01T05:01:11;23.40;;;10.20;;
57023;SDS011;42916;54.346;18.562;2023-03-01T05:03:43;21.80;;;9.50;;
57023;SDS011;42916;54.346;18.562;2023-03-01T05:06:15;21.50;;;9.30;;
57023;SDS011;42916;54.346;18.562;2023-03-01T05:08:43;23.00;;;10.10;;
57023;SDS011;42916;54.346;18.562;2023-03-01T05:11:18;22.20;;;9.60;;
57023;SDS011;42916;54.346;18.562;2023-03-01T05:13:45;25.00;;;9.90;;
57023;SDS011;42916;54.346;18.562;2023-03-01T05:16:12;25.50;;;11.00;;
57023;SDS011;42916;54.346;18.562;2023-03-01T05:18:42;30.20;;;11.80;;
57023;SDS011;42916;54.346;18.562;2023-03-01T05:21:11;25.10;;;9.60;;
57023;SDS011;42916;54.346;18.562;2023-03-01T05:26:06;29.00;;;10.50;;
57023;SDS011;42916;54.346;18.562;2023-03-01T05:28:34;24.70;;;10.00;;
57023;SDS011;42916;54.346;18.562;2023-03-01T05:31:01;21.40;;;8.40;;
57023;SDS011;42916;54.346;18.562;2023-03-01T05:33:28;31.10;;;11.10;;
57023;SDS011;42916;54.346;18.562;2023-03-01T05:35:59;27.20;;;10.70;;
57023;SDS011;42916;54.346;18.562;2023-03-01T05:38:26;36.00;;;12.40;;
57023;SDS011;42916;54.346;18.562;2023-03-01T05:40:53;30.70;;;11.60;;
57023;SDS011;42916;54.346;18.562;2023-03-01T05:43:20;30.60;;;11.10;;
57023;SDS011;42916;54.346;18.562;2023-03-01T05:45:47;29.90;;;10.60;;
57023;SDS011;42916;54.346;18.562;2023-03-01T05:48:15;29.40;;;11.30;;
57023;SDS011;42916;54.346;18.562;2023-03-01T05:50:43;26.90;;;9.50;;
57023;SDS011;42916;54.346;18.562;2023-03-01T05:55:39;23.70;;;9.60;;
57023;SDS011;42916;54.346;18.562;2023-03-01T05:58:08;25.90;;;10.30;;
57023;SDS011;42916;54.346;18.562;2023-03-01T06:00:38;28.90;;;11.00;;
57023;SDS011;42916;54.346;18.562;2023-03-01T06:03:04;25.40;;;10.40;;
57023;SDS011;42916;54.346;18.562;2023-03-01T06:05:32;24.90;;;10.80;;
57023;SDS011;42916;54.346;18.562;2023-03-01T06:07:59;27.70;;;10.80;;
57023;SDS011;42916;54.346;18.562;2023-03-01T06:10:27;23.90;;;9.70;;
57023;SDS011;42916;54.346;18.562;2023-03-01T06:12:55;22.40;;;9.60;;
57023;SDS011;42916;54.346;18.562;2023-03-01T06:15:22;27.80;;;10.90;;
57023;SDS011;42916;54.346;18.562;2023-03-01T06:17:50;26.30;;;11.10;;
57023;SDS011;42916;54.346;18.562;2023-03-01T06:20:18;24.10;;;10.50;;
57023;SDS011;42916;54.346;18.562;2023-03-01T06:22:48;29.40;;;11.00;;
57023;SDS011;42916;54.346;18.562;2023-03-01T06:25:16;22.80;;;9.80;;
57023;SDS011;42916;54.346;18.562;2023-03-01T06:27:45;21.80;;;9.70;;
57023;SDS011;42916;54.346;18.562;2023-03-01T06:30:13;23.60;;;9.70;;
57023;SDS011;42916;54.346;18.562;2023-03-01T06:32:43;24.20;;;9.60;;
57023;SDS011;42916;54.346;18.562;2023-03-01T06:35:12;23.50;;;11.00;;
57023;SDS011;42916;54.346;18.562;2023-03-01T06:37:46;21.40;;;9.50;;
57023;SDS011;42916;54.346;18.562;2023-03-01T06:40:15;22.30;;;9.60;;
57023;SDS011;42916;54.346;18.562;2023-03-01T06:42:43;23.40;;;10.40;;
57023;SDS011;42916;54.346;18.562;2023-03-01T06:45:17;23.30;;;8.60;;
57023;SDS011;42916;54.346;18.562;2023-03-01T06:47:45;19.50;;;8.20;;
57023;SDS011;42916;54.346;18.562;2023-03-01T06:50:13;17.70;;;8.20;;
57023;SDS011;42916;54.346;18.562;2023-03-01T06:52:41;19.40;;;8.60;;
57023;SDS011;42916;54.346;18.562;2023-03-01T06:55:10;23.40;;;9.00;;
57023;SDS011;42916;54.346;18.562;2023-03-01T06:57:38;23.90;;;9.10;;
57023;SDS011;42916;54.346;18.562;2023-03-01T07:00:05;24.70;;;9.60;;
57023;SDS011;42916;54.346;18.562;2023-03-01T07:02:33;23.90;;;9.50;;
57023;SDS011;42916;54.346;18.562;2023-03-01T07:05:10;21.40;;;9.90;;
57023;SDS011;42916;54.346;18.562;2023-03-01T07:07:37;22.10;;;9.00;;
57023;SDS011;42916;54.346;18.562;2023-03-01T07:10:05;23.00;;;8.80;;
57023;SDS011;42916;54.346;18.562;2023-03-01T07:12:32;23.50;;;9.60;;
57023;SDS011;42916;54.346;18.562;2023-03-01T07:14:59;23.00;;;9.50;;
57023;SDS011;42916;54.346;18.562;2023-03-01T07:17:26;21.80;;;9.10;;
57023;SDS011;42916;54.346;18.562;2023-03-01T07:19:56;17.10;;;7.60;;
57023;SDS011;42916;54.346;18.562;2023-03-01T07:22:23;19.70;;;9.00;;
57023;SDS011;42916;54.346;18.562;2023-03-01T07:24:51;21.70;;;9.70;;
57023;SDS011;42916;54.346;18.562;2023-03-01T07:27:18;18.40;;;8.90;;
57023;SDS011;42916;54.346;18.562;2023-03-01T07:29:47;23.80;;;10.00;;
57023;SDS011;42916;54.346;18.562;2023-03-01T07:32:18;22.70;;;9.40;;
57023;SDS011;42916;54.346;18.562;2023-03-01T07:34:45;24.30;;;9.40;;
57023;SDS011;42916;54.346;18.562;2023-03-01T07:37:12;20.20;;;8.30;;
57023;SDS011;42916;54.346;18.562;2023-03-01T07:39:40;20.30;;;8.70;;
57023;SDS011;42916;54.346;18.562;2023-03-01T07:42:07;22.80;;;9.00;;
57023;SDS011;42916;54.346;18.562;2023-03-01T07:44:34;20.40;;;8.80;;
57023;SDS011;42916;54.346;18.562;2023-03-01T07:47:02;22.70;;;9.60;;
57023;SDS011;42916;54.346;18.562;2023-03-01T07:49:29;18.80;;;9.50;;
57023;SDS011;42916;54.346;18.562;2023-03-01T07:51:56;20.50;;;9.10;;
57023;SDS011;42916;54.346;18.562;2023-03-01T07:54:23;22.20;;;9.90;;
57023;SDS011;42916;54.346;18.562;2023-03-01T07:56:52;21.40;;;9.30;;
57023;SDS011;42916;54.346;18.562;2023-03-01T07:59:23;21.40;;;8.70;;
57023;SDS011;42916;54.346;18.562;2023-03-01T08:01:58;22.00;;;8.90;;
57023;SDS011;42916;54.346;18.562;2023-03-01T08:04:25;20.20;;;8.30;;
57023;SDS011;42916;54.346;18.562;2023-03-01T08:06:53;19.20;;;8.20;;
57023;SDS011;42916;54.346;18.562;2023-03-01T08:09:21;20.50;;;9.20;;
57023;SDS011;42916;54.346;18.562;2023-03-01T08:12:05;18.70;;;8.70;;
57023;SDS011;42916;54.346;18.562;2023-03-01T08:14:32;19.80;;;9.70;;
57023;SDS011;42916;54.346;18.562;2023-03-01T08:16:59;19.40;;;8.80;;
57023;SDS011;42916;54.346;18.562;2023-03-01T08:21:56;21.70;;;9.60;;
57023;SDS011;42916;54.346;18.562;2023-03-01T08:24:24;22.90;;;9.70;;
57023;SDS011;42916;54.346;18.562;2023-03-01T08:26:51;21.20;;;9.00;;
57023;SDS011;42916;54.346;18.562;2023-03-01T08:29:18;22.40;;;8.80;;
57023;SDS011;42916;54.346;18.562;2023-03-01T08:31:46;20.10;;;8.30;;
57023;SDS011;42916;54.346;18.562;2023-03-01T08:34:15;26.40;;;10.40;;
57023;SDS011;42916;54.346;18.562;2023-03-01T08:36:44;23.80;;;10.30;;
57023;SDS011;42916;54.346;18.562;2023-03-01T08:41:41;22.80;;;10.40;;
57023;SDS011;42916;54.346;18.562;2023-03-01T08:44:09;23.00;;;9.70;;
57023;SDS011;42916;54.346;18.562;2023-03-01T08:46:38;24.10;;;9.90;;
57023;SDS011;42916;54.346;18.562;2023-03-01T08:49:07;22.20;;;9.90;;
57023;SDS011;42916;54.346;18.562;2023-03-01T08:51:37;20.20;;;9.00;;
57023;SDS011;42916;54.346;18.562;2023-03-01T08:54:05;20.30;;;9.70;;
57023;SDS011;42916;54.346;18.562;2023-03-01T08:56:33;21.20;;;9.90;;
57023;SDS011;42916;54.346;18.562;2023-03-01T08:59:01;22.30;;;8.00;;
57023;SDS011;42916;54.346;18.562;2023-03-01T09:01:28;20.70;;;10.20;;
57023;SDS011;42916;54.346;18.562;2023-03-01T09:03:55;19.60;;;10.10;;
57023;SDS011;42916;54.346;18.562;2023-03-01T09:06:22;20.30;;;10.20;;
57023;SDS011;42916;54.346;18.562;2023-03-01T09:08:50;23.40;;;9.70;;
57023;SDS011;42916;54.346;18.562;2023-03-01T09:11:18;20.90;;;10.40;;
57023;SDS011;42916;54.346;18.562;2023-03-01T09:13:47;23.50;;;10.80;;
57023;SDS011;42916;54.346;18.562;2023-03-01T09:16:16;24.30;;;11.50;;
57023;SDS011;42916;54.346;18.562;2023-03-01T09:18:44;24.70;;;11.10;;
57023;SDS011;42916;54.346;18.562;2023-03-01T09:21:12;25.40;;;11.20;;
57023;SDS011;42916;54.346;18.562;2023-03-01T09:23:42;20.60;;;10.00;;
57023;SDS011;42916;54.346;18.562;2023-03-01T09:28:39;25.10;;;11.10;;
57023;SDS011;42916;54.346;18.562;2023-03-01T09:31:07;18.20;;;10.40;;
57023;SDS011;42916;54.346;18.562;2023-03-01T09:33:38;23.30;;;11.30;;
57023;SDS011;42916;54.346;18.562;2023-03-01T09:36:06;24.20;;;11.00;;
57023;SDS011;42916;54.346;18.562;2023-03-01T09:38:37;25.10;;;11.40;;
57023;SDS011;42916;54.346;18.562;2023-03-01T09:41:18;23.30;;;11.20;;
57023;SDS011;42916;54.346;18.562;2023-03-01T09:46:52;24.90;;;11.40;;
57023;SDS011;42916;54.346;18.562;2023-03-01T09:49:21;24.80;;;10.50;;
57023;SDS011;42916;54.346;18.562;2023-03-01T09:51:55;22.60;;;10.70;;
57023;SDS011;42916;54.346;18.562;2023-03-01T09:54:26;22.50;;;10.80;;
57023;SDS011;42916;54.346;18.562;2023-03-01T09:56:57;21.30;;;10.50;;
57023;SDS011;42916;54.346;18.562;2023-03-01T10:10:43;22.50;;;10.70;;
57023;SDS011;42916;54.346;18.562;2023-03-01T10:15:45;22.10;;;9.90;;
57023;SDS011;42916;54.346;18.562;2023-03-01T10:18:17;23.10;;;10.10;;
57023;SDS011;42916;54.346;18.562;2023-03-01T10:23:17;20.70;;;10.00;;
57023;SDS011;42916;54.346;18.562;2023-03-01T10:25:51;22.20;;;10.30;;
57023;SDS011;42916;54.346;18.562;2023-03-01T10:31:15;24.30;;;9.90;;
57023;SDS011;42916;54.346;18.562;2023-03-01T10:33:51;17.60;;;8.60;;
57023;SDS011;42916;54.346;18.562;2023-03-01T10:36:23;18.60;;;9.60;;
57023;SDS011;42916;54.346;18.562;2023-03-01T10:41:25;20.50;;;10.20;;
57023;SDS011;42916;54.346;18.562;2023-03-01T10:43:54;23.50;;;11.20;;
57023;SDS011;42916;54.346;18.562;2023-03-01T10:46:33;21.30;;;9.70;;
57023;SDS011;42916;54.346;18.562;2023-03-01T10:51:44;20.20;;;10.00;;
57023;SDS011;42916;54.346;18.562;2023-03-01T10:54:27;23.70;;;10.10;;
57023;SDS011;42916;54.346;18.562;2023-03-01T10:56:59;20.60;;;11.30;;
57023;SDS011;42916;54.346;18.562;2023-03-01T11:02:01;23.60;;;11.00;;
57023;SDS011;42916;54.346;18.562;2023-03-01T11:07:46;20.90;;;10.70;;
57023;SDS011;42916;54.346;18.562;2023-03-01T11:10:28;19.70;;;10.60;;
57023;SDS011;42916;54.346;18.562;2023-03-01T11:18:27;22.60;;;10.40;;
57023;SDS011;42916;54.346;18.562;2023-03-01T11:20:56;21.60;;;10.90;;
57023;SDS011;42916;54.346;18.562;2023-03-01T11:23:27;22.20;;;10.70;;
57023;SDS011;42916;54.346;18.562;2023-03-01T11:25:58;19.40;;;9.80;;
57023;SDS011;42916;54.346;18.562;2023-03-01T11:28:30;21.40;;;10.50;;
57023;SDS011;42916;54.346;18.562;2023-03-01T11:31:11;21.40;;;10.40;;
57023;SDS011;42916;54.346;18.562;2023-03-01T11:33:41;25.50;;;12.10;;
57023;SDS011;42916;54.346;18.562;2023-03-01T11:36:24;21.30;;;10.80;;
57023;SDS011;42916;54.346;18.562;2023-03-01T11:39:01;25.40;;;12.60;;
57023;SDS011;42916;54.346;18.562;2023-03-01T11:41:39;29.00;;;15.40;;
57023;SDS011;42916;54.346;18.562;2023-03-01T11:46:40;21.80;;;11.10;;
57023;SDS011;42916;54.346;18.562;2023-03-01T11:49:48;23.10;;;11.80;;
57023;SDS011;42916;54.346;18.562;2023-03-01T11:52:33;22.90;;;11.50;;
57023;SDS011;42916;54.346;18.562;2023-03-01T12:09:57;26.20;;;13.10;;
57023;SDS011;42916;54.346;18.562;2023-03-01T12:15:44;27.10;;;12.60;;
57023;SDS011;42916;54.346;18.562;2023-03-01T12:26:20;25.40;;;12.30;;
57023;SDS011;42916;54.346;18.562;2023-03-01T12:34:21;24.80;;;12.40;;
57023;SDS011;42916;54.346;18.562;2023-03-01T12:37:10;26.80;;;13.40;;
57023;SDS011;42916;54.346;18.562;2023-03-01T12:42:41;25.00;;;13.10;;
57023;SDS011;42916;54.346;18.562;2023-03-01T12:45:32;23.00;;;12.40;;
57023;SDS011;42916;54.346;18.562;2023-03-01T12:51:10;24.70;;;13.30;;
57023;SDS011;42916;54.346;18.562;2023-03-01T12:53:41;26.40;;;14.30;;
57023;SDS011;42916;54.346;18.562;2023-03-01T12:56:18;23.10;;;12.30;;
57023;SDS011;42916;54.346;18.562;2023-03-01T12:59:09;24.50;;;13.40;;
57023;SDS011;42916;54.346;18.562;2023-03-01T13:17:50;21.50;;;12.30;;
57023;SDS011;42916;54.346;18.562;2023-03-01T13:22:47;19.30;;;11.40;;
57023;SDS011;42916;54.346;18.562;2023-03-01T13:25:27;24.50;;;12.30;;
57023;SDS011;42916;54.346;18.562;2023-03-01T13:28:32;20.30;;;11.00;;
57023;SDS011;42916;54.346;18.562;2023-03-01T13:31:07;21.60;;;12.20;;
57023;SDS011;42916;54.346;18.562;2023-03-01T13:33:41;23.90;;;12.20;;
57023;SDS011;42916;54.346;18.562;2023-03-01T13:44:12;21.60;;;12.40;;
57023;SDS011;42916;54.346;18.562;2023-03-01T13:46:46;20.10;;;13.20;;
57023;SDS011;42916;54.346;18.562;2023-03-01T13:49:15;20.40;;;12.20;;
57023;SDS011;42916;54.346;18.562;2023-03-01T13:51:47;18.50;;;11.20;;
57023;SDS011;42916;54.346;18.562;2023-03-01T13:54:16;19.00;;;11.70;;
57023;SDS011;42916;54.346;18.562;2023-03-01T13:56:51;19.40;;;11.80;;
57023;SDS011;42916;54.346;18.562;2023-03-01T13:59:20;23.00;;;12.10;;
57023;SDS011;42916;54.346;18.562;2023-03-01T14:01:52;18.50;;;11.40;;
57023;SDS011;42916;54.346;18.562;2023-03-01T14:04:25;20.30;;;11.60;;
57023;SDS011;42916;54.346;18.562;2023-03-01T14:09:45;17.20;;;10.90;;
57023;SDS011;42916;54.346;18.562;2023-03-01T14:15:19;18.00;;;11.20;;
57023;SDS011;42916;54.346;18.562;2023-03-01T14:20:47;19.40;;;12.00;;
57023;SDS011;42916;54.346;18.562;2023-03-01T14:23:18;17.40;;;11.60;;
57023;SDS011;42916;54.346;18.562;2023-03-01T14:28:21;19.80;;;11.90;;
57023;SDS011;42916;54.346;18.562;2023-03-01T14:30:51;19.40;;;11.90;;
57023;SDS011;42916;54.346;18.562;2023-03-01T14:36:03;18.80;;;12.00;;
57023;SDS011;42916;54.346;18.562;2023-03-01T14:38:36;18.70;;;11.80;;
57023;SDS011;42916;54.346;18.562;2023-03-01T14:41:12;20.00;;;12.00;;
57023;SDS011;42916;54.346;18.562;2023-03-01T14:43:45;20.50;;;11.50;;
57023;SDS011;42916;54.346;18.562;2023-03-01T14:46:17;18.70;;;11.40;;
57023;SDS011;42916;54.346;18.562;2023-03-01T14:48:47;18.60;;;11.00;;
57023;SDS011;42916;54.346;18.562;2023-03-01T14:51:16;19.60;;;11.40;;
57023;SDS011;42916;54.346;18.562;2023-03-01T14:53:43;19.40;;;11.70;;
57023;SDS011;42916;54.346;18.562;2023-03-01T14:56:14;21.70;;;11.50;;
57023;SDS011;42916;54.346;18.562;2023-03-01T14:58:45;19.20;;;10.60;;
57023;SDS011;42916;54.346;18.562;2023-03-01T15:01:16;23.10;;;10.80;;
57023;SDS011;42916;54.346;18.562;2023-03-01T15:03:46;21.30;;;11.00;;
57023;SDS011;42916;54.346;18.562;2023-03-01T15:06:15;21.50;;;11.00;;
57023;SDS011;42916;54.346;18.562;2023-03-01T15:08:49;21.00;;;10.80;;
57023;SDS011;42916;54.346;18.562;2023-03-01T15:11:31;24.00;;;12.00;;
57023;SDS011;42916;54.346;18.562;2023-03-01T15:13:59;23.10;;;11.30;;
57023;SDS011;42916;54.346;18.562;2023-03-01T15:16:30;21.10;;;10.80;;
57023;SDS011;42916;54.346;18.562;2023-03-01T15:21:35;21.00;;;10.50;;
57023;SDS011;42916;54.346;18.562;2023-03-01T15:24:27;25.50;;;11.90;;
57023;SDS011;42916;54.346;18.562;2023-03-01T15:26:56;19.00;;;10.40;;
57023;SDS011;42916;54.346;18.562;2023-03-01T15:29:33;21.50;;;10.40;;
57023;SDS011;42916;54.346;18.562;2023-03-01T15:32:28;20.70;;;9.70;;
57023;SDS011;42916;54.346;18.562;2023-03-01T15:34:59;20.40;;;10.20;;
57023;SDS011;42916;54.346;18.562;2023-03-01T15:40:27;19.50;;;10.40;;
57023;SDS011;42916;54.346;18.562;2023-03-01T15:43:13;22.00;;;10.80;;
57023;SDS011;42916;54.346;18.562;2023-03-01T15:46:26;21.80;;;10.20;;
57023;SDS011;42916;54.346;18.562;2023-03-01T15:48:58;19.10;;;10.10;;
57023;SDS011;42916;54.346;18.562;2023-03-01T15:51:37;23.60;;;11.90;;
57023;SDS011;42916;54.346;18.562;2023-03-01T15:54:05;26.40;;;12.30;;
57023;SDS011;42916;54.346;18.562;2023-03-01T15:56:41;27.10;;;13.40;;
57023;SDS011;42916;54.346;18.562;2023-03-01T15:59:08;25.30;;;12.20;;
57023;SDS011;42916;54.346;18.562;2023-03-01T16:01:49;24.00;;;11.10;;
57023;SDS011;42916;54.346;18.562;2023-03-01T16:04:19;27.70;;;11.70;;
57023;SDS011;42916;54.346;18.562;2023-03-01T16:09:36;27.30;;;13.40;;
57023;SDS011;42916;54.346;18.562;2023-03-01T16:12:14;23.20;;;12.10;;
57023;SDS011;42916;54.346;18.562;2023-03-01T16:14:43;21.30;;;11.60;;
57023;SDS011;42916;54.346;18.562;2023-03-01T16:17:17;23.20;;;13.00;;
57023;SDS011;42916;54.346;18.562;2023-03-01T16:19:45;28.50;;;13.90;;
57023;SDS011;42916;54.346;18.562;2023-03-01T16:22:12;30.80;;;13.80;;
57023;SDS011;42916;54.346;18.562;2023-03-01T16:24:39;28.30;;;14.10;;
57023;SDS011;42916;54.346;18.562;2023-03-01T16:27:07;26.90;;;13.80;;
57023;SDS011;42916;54.346;18.562;2023-03-01T16:29:45;29.70;;;14.30;;
57023;SDS011;42916;54.346;18.562;2023-03-01T16:32:12;33.10;;;15.30;;
57023;SDS011;42916;54.346;18.562;2023-03-01T16:34:44;30.10;;;15.00;;
57023;SDS011;42916;54.346;18.562;2023-03-01T16:37:13;32.00;;;14.90;;
57023;SDS011;42916;54.346;18.562;2023-03-01T16:39:43;33.00;;;15.50;;
57023;SDS011;42916;54.346;18.562;2023-03-01T16:42:16;35.90;;;15.40;;
57023;SDS011;42916;54.346;18.562;2023-03-01T16:45:05;31.90;;;15.50;;
57023;SDS011;42916;54.346;18.562;2023-03-01T16:47:36;33.80;;;15.80;;
57023;SDS011;42916;54.346;18.562;2023-03-01T16:50:03;31.10;;;15.30;;
57023;SDS011;42916;54.346;18.562;2023-03-01T16:52:31;34.60;;;15.70;;
57023;SDS011;42916;54.346;18.562;2023-03-01T16:55:00;30.90;;;15.60;;
57023;SDS011;42916;54.346;18.562;2023-03-01T16:57:58;33.00;;;15.40;;
57023;SDS011;42916;54.346;18.562;2023-03-01T17:00:31;35.10;;;16.30;;
57023;SDS011;42916;54.346;18.562;2023-03-01T17:03:04;32.70;;;15.80;;
57023;SDS011;42916;54.346;18.562;2023-03-01T17:08:08;40.50;;;16.40;;
57023;SDS011;42916;54.346;18.562;2023-03-01T17:10:38;37.50;;;16.60;;